Amarillo, Texas
Current Conditions -  °F | °C
As of 10:53 AM on Wednesday 26 Nov 2014 (Local Time) from KAMA Reporting Station
Clear Clear  
Wind Chill: 38°   Ceiling: Unl
Heat Index: 44°   Visibility: 10mi
Dew Point: 27°   Wind: 12mph
Humidity: 51%   Direction: 340°NNW
Pressure: 30.3"   Gusts: NA
Location:  35.21°N, 101.83°W
Report Text: KAMA 261653Z 34010KT 10SM CLR 07/M03 A3030 RMK AO2 SLP256 T00671028
Loading
Personal Weather Stations






























Interactive Weather Map New forecast layout! Learn more

10-Day Weather Forecast

Advertisements
Track Severe Weather on mobile